San Antonio, Texas
Traffic Map
Current Weather Conditions
San Antonio, Texas
Clear
Clear
10°
Feels Like: 10°
Wind Chill: 10° Ceiling: Unl
Heat Index: 10° Visibility: 10mi
Dew Point: Wind: 0mph
Humidity: 67% Direction: ° ()
Pressure: 30.19in Gusts: 0mph
Raw Report DataKSKF 270558Z AUTO 00000KT 10SM CLR 10/04 A3019 RMK AO2 SLP222 T01000041 10190 20082 402060082 $
Traffic Incident Summary
Active as of:
Severity:
Category:
InformationThere was an issue retrieving the traffic information for this location. Please try a different location or try again shortly.
Advertisements
Track Severe Weather on mobile